• Join FlightAware (Why Join?)
  • Login
  • US Flag 
08:09AM EST


 

Airport Tracker/Info


-or-


 

Live Flight TrackerFlight Track Log ✈ UAL4274 ✈ 15-Jul-2013 ✈ KDAL - KIAH

Flight Track Log - Related Links

Times and Time Zones

All times are in EDT time to prevent confusion due to time zone crossing. See the UAL4274 flight status page for this flight to view local times or setup timezone preferences in your user account.

Time Position Orientation Groundspeed Altitude Reporting Facility
EDT Latitude Longitude Course Direction KTS MPH feet Rate Location/Type
07:02PM 32.8333 -96.8333 132° Southeast 164 189 1,500  Level Dallas / Fort Worth TRACON
07:04PM 32.7833 -96.7667 132° Southeast 232 267 4,300 2,340 Climbing Dallas / Fort Worth TRACON
07:05PM 32.7167 -96.7333 157° South 248 285 7,000 1,740 Climbing Dallas / Fort Worth TRACON
07:07PM 32.5542 -96.7750 192° South 289 333 10,000 1,380 Climbing Fort Worth Center
07:08PM 32.4581 -96.7881 187° South 341 392 11,500 1,500 Climbing Fort Worth Center
07:09PM 32.3642 -96.8058 189° South 355 409 13,000 1,620 Climbing Fort Worth Center
07:10PM 32.2683 -96.8089 182° South 349 402 14,800 1,680 Climbing Fort Worth Center
07:11PM 32.1742 -96.7753 163° South 346 398 16,400 1,560 Climbing Fort Worth Center
07:12PM 32.0864 -96.7439 163° South 346 398 18,000 1,620 Climbing Fort Worth Center
07:13PM 31.9964 -96.7103 162° South 341 392 19,700 1,500 Climbing Fort Worth Center
07:14PM 31.9064 -96.6719 160° South 347 399 21,000 840 Climbing Fort Worth Center
07:14PM 31.8592 -96.6539 162° South 345 397 21,000  Level Houston Center
07:15PM 31.7550 -96.6117 161° South 378 435 21,000  Level Houston Center
07:16PM 31.6478 -96.5669 160° South 398 458 21,000  Level Houston Center
07:17PM 31.5375 -96.5819 187° South 398 458 21,000  Level Houston Center
07:18PM 31.4275 -96.5986 187° South 394 453 21,000  Level Houston Center
07:19PM 31.3347 -96.6164 189° South 346 398 21,000  Level Houston Center
07:20PM 31.2464 -96.6308 188° South 323 372 21,000  Level Houston Center
07:21PM 31.1581 -96.6469 189° South 318 366 21,000  Level Houston Center
07:22PM 31.0714 -96.6250 168° South 333 383 21,000  Level Houston Center
07:23PM 30.9903 -96.5717 151° Southeast 330 380 21,000 -60 Level Houston Center
07:25PM 30.9094 -96.5122 148° Southeast 338 389 20,900 -1,140 Descending Houston Center
07:26PM 30.8208 -96.4464 147° Southeast 368 423 18,700 -2,220 Descending Houston Center
07:27PM 30.7236 -96.3767 148° Southeast 401 461 16,400 -2,580 Descending Houston Center
07:28PM 30.5850 -96.2769 148° Southeast 356 410 12,300 -2,640 Descending Houston Center
07:29PM 30.5394 -96.2439 148° Southeast 349 402 11,000 -1,980 Descending Houston Center
07:29PM 30.4958 -96.2119 148° Southeast 338 389 10,100 -660 Descending Houston Center
07:30PM 30.4153 -96.1556 149° Southeast 319 367 10,000 -60 Descending Houston Center
07:31PM 30.3528 -96.1094 148° Southeast 245 282 10,000  Level Houston Center
07:32PM 30.2947 -96.0675 148° Southeast 246 283 10,000  Level Houston Center
07:33PM 30.2394 -96.0353 153° Southeast 233 268 10,100 -120 Climbing Houston Center
07:34PM 30.2094 -96.0372 183° South 243 280 9,900 -300 Descending Houston Center
07:34PM 30.1706 -96.0406 184° South 233 268 9,800 -600 Descending Houston Center
07:35PM 30.1464 -96.0419 183° South 228 262 9,300 -1,020 Descending Houston Center
07:35PM 30.1058 -96.0456 184° South 231 266 8,800 -1,140 Descending Houston Center
07:36PM 30.0775 -96.0475 183° South 230 265 8,200 -840 Descending Houston Center
07:36PM 30.0417 -96.0528 187° South 231 266 8,000 -300 Descending Houston Center
07:37PM 30.0144 -96.0531 181° South 228 262 7,900 60 Descending Houston Center
07:37PM 29.9811 -96.0333 153° Southeast 233 268 8,100 -480 Climbing Houston Center
07:38PM 29.9789 -95.9589 92° East 229 264 7,200 -1,380 Descending Houston Center
07:39PM 29.9772 -95.8914 92° East 223 257 5,500 -1,500 Descending Houston Center
07:40PM 29.9764 -95.8619 92° East 223 257 5,000 -480 Descending Houston Center
07:40PM 29.9744 -95.8122 93° East 219 252 5,000  Level Houston Center
07:41PM 29.9753 -95.7494 89° East 224 258 5,000 -120 Level Houston Center
07:42PM 29.9772 -95.7206 86° East 221 254 4,900  Descending Houston Center
07:43PM 29.9769 -95.6744 90° East 190 219 5,000  Climbing Houston Center
07:43PM 29.9764 -95.6217 91° East 183 211 4,900 -540 Descending Houston Center
07:44PM 29.9761 -95.5869 91° East 183 211 4,200 -1,080 Descending Houston Center
07:45PM 29.9781 -95.5303 88° East 183 211 3,200 -960 Descending Houston Center
07:46PM 29.9769 -95.4714 91° East 183 211 2,300 -900 Descending Houston Center